createdAt,value
2022-09-14T00:01:24.858Z,6.70
2022-09-14T00:04:34.607Z,6.48
2022-09-14T00:07:40.565Z,6.66
2022-09-14T00:10:50.880Z,6.31
2022-09-14T00:13:59.200Z,6.36
2022-09-14T00:17:06.408Z,6.61
2022-09-14T00:20:15.198Z,6.38
2022-09-14T00:23:20.944Z,6.48
2022-09-14T00:26:27.423Z,6.29
2022-09-14T00:29:34.260Z,6.31
2022-09-14T00:32:40.595Z,6.39
2022-09-14T00:35:48.985Z,6.54
2022-09-14T00:38:56.893Z,6.44
2022-09-14T00:42:02.947Z,6.14
2022-09-14T00:45:19.386Z,6.51
2022-09-14T00:48:37.447Z,6.42
2022-09-14T00:51:56.177Z,6.60
2022-09-14T00:55:07.724Z,6.66
2022-09-14T00:58:13.687Z,6.75
2022-09-14T01:01:20.021Z,6.72
2022-09-14T01:04:26.616Z,6.71
2022-09-14T01:07:59.988Z,6.50
2022-09-14T01:11:26.998Z,6.44
2022-09-14T01:14:46.314Z,6.70
2022-09-14T01:18:08.236Z,6.86
2022-09-14T01:21:22.916Z,7.26
2022-09-14T01:24:49.464Z,7.03
2022-09-14T01:28:06.684Z,6.87
2022-09-14T01:31:21.686Z,6.89
2022-09-14T01:34:38.005Z,7.50
2022-09-14T01:37:52.966Z,7.26
2022-09-14T01:41:06.668Z,7.41
2022-09-14T01:44:23.475Z,7.55
2022-09-14T01:47:38.914Z,7.62
2022-09-14T01:50:55.876Z,8.12
2022-09-14T01:54:14.593Z,8.48
2022-09-14T01:57:32.189Z,9.09
2022-09-14T02:00:48.387Z,9.88
2022-09-14T02:04:05.574Z,9.72
2022-09-14T02:07:12.813Z,9.13
2022-09-14T02:10:21.392Z,8.58
2022-09-14T02:13:28.510Z,8.00
2022-09-14T02:16:36.911Z,7.92
2022-09-14T02:19:53.945Z,7.53
2022-09-14T02:23:00.101Z,7.65
2022-09-14T02:26:08.228Z,7.01
2022-09-14T02:29:13.985Z,7.04
2022-09-14T02:32:37.050Z,7.02
2022-09-14T02:35:53.226Z,6.53
2022-09-14T02:39:14.959Z,6.71
2022-09-14T02:42:37.376Z,6.57
2022-09-14T02:45:58.152Z,7.04
2022-09-14T02:49:19.101Z,7.29
2022-09-14T02:52:38.967Z,7.38
2022-09-14T02:55:54.574Z,7.70
2022-09-14T02:59:00.124Z,7.37
2022-09-14T03:02:07.505Z,7.42
2022-09-14T03:05:15.902Z,7.43
2022-09-14T03:08:21.599Z,7.01
2022-09-14T03:11:27.071Z,7.57
2022-09-14T03:14:32.677Z,7.62
2022-09-14T03:17:38.204Z,8.18
2022-09-14T03:20:48.320Z,9.25
2022-09-14T03:23:58.103Z,10.58
2022-09-14T03:27:03.710Z,13.16
2022-09-14T03:30:11.735Z,11.76
2022-09-14T03:33:20.031Z,9.74
2022-09-14T03:36:31.479Z,8.97
2022-09-14T03:39:37.860Z,8.56
2022-09-14T03:42:45.889Z,8.16
2022-09-14T03:45:51.412Z,8.10
2022-09-14T03:48:58.385Z,7.93
2022-09-14T03:52:07.165Z,7.54
2022-09-14T03:55:14.569Z,7.24
2022-09-14T03:58:20.056Z,6.96
2022-09-14T04:01:26.765Z,7.04
2022-09-14T04:04:32.725Z,6.96
2022-09-14T04:07:40.855Z,7.17
2022-09-14T04:10:48.968Z,7.20
2022-09-14T04:13:56.190Z,7.81
2022-09-14T04:17:02.346Z,9.38
2022-09-14T04:20:09.373Z,9.24
2022-09-14T04:23:18.674Z,8.08
2022-09-14T04:26:28.955Z,7.53
2022-09-14T04:29:34.507Z,7.39
2022-09-14T04:32:40.316Z,6.78
2022-09-14T04:35:45.934Z,7.12
2022-09-14T04:38:57.945Z,6.68
2022-09-14T04:42:03.612Z,7.02
2022-09-14T04:45:10.826Z,6.88
2022-09-14T04:48:16.352Z,6.80
2022-09-14T04:51:26.261Z,7.25
2022-09-14T04:54:34.503Z,7.97
2022-09-14T04:57:40.033Z,8.52
2022-09-14T05:00:48.286Z,8.03
2022-09-14T05:03:55.001Z,8.00
2022-09-14T05:07:00.549Z,8.24
2022-09-14T05:10:18.671Z,8.17
2022-09-14T05:13:24.303Z,8.53
2022-09-14T05:16:32.878Z,8.63
2022-09-14T05:19:38.739Z,8.58
2022-09-14T05:22:44.565Z,8.41
2022-09-14T05:25:58.800Z,7.99
2022-09-14T05:29:09.393Z,7.66
2022-09-14T05:32:15.419Z,7.81
2022-09-14T05:35:21.278Z,7.55
2022-09-14T05:38:27.050Z,7.76
2022-09-14T05:41:35.414Z,7.45
2022-09-14T05:44:41.986Z,6.93
2022-09-14T05:47:47.686Z,6.48
2022-09-14T05:51:02.350Z,6.77
2022-09-14T05:54:18.656Z,6.51
2022-09-14T05:57:33.791Z,6.42
2022-09-14T06:00:39.749Z,6.52
2022-09-14T06:03:49.098Z,6.18
2022-09-14T06:07:17.446Z,6.27
2022-09-14T06:10:23.042Z,6.49
2022-09-14T06:13:31.790Z,6.16
2022-09-14T06:16:38.289Z,6.08
2022-09-14T06:19:44.065Z,6.42
2022-09-14T06:22:49.720Z,6.19
2022-09-14T06:25:57.194Z,6.26
2022-09-14T06:29:05.577Z,5.93
2022-09-14T06:32:11.137Z,5.99
2022-09-14T06:35:16.819Z,6.37
2022-09-14T06:38:22.305Z,6.66
2022-09-14T06:41:33.003Z,6.47
2022-09-14T06:44:41.093Z,6.62
2022-09-14T06:47:46.662Z,6.97
2022-09-14T06:50:52.191Z,6.38
2022-09-14T06:54:05.237Z,6.40
2022-09-14T06:57:10.824Z,6.49
2022-09-14T07:00:19.817Z,6.57
2022-09-14T07:03:30.852Z,6.62
2022-09-14T07:06:42.875Z,6.56
2022-09-14T07:09:48.404Z,6.99
2022-09-14T07:12:54.463Z,6.50
2022-09-14T07:16:03.588Z,6.86
2022-09-14T07:19:14.179Z,7.21
2022-09-14T07:22:19.959Z,7.31
2022-09-14T07:25:25.679Z,7.90
2022-09-14T07:28:32.997Z,8.53
2022-09-14T07:31:46.360Z,8.60
2022-09-14T07:34:58.110Z,8.38
2022-09-14T07:38:03.708Z,7.98
2022-09-14T07:41:10.036Z,7.85
2022-09-14T07:44:19.927Z,8.40
2022-09-14T07:47:31.401Z,8.16
2022-09-14T07:50:43.570Z,8.50
2022-09-14T07:53:49.437Z,8.29
2022-09-14T07:56:55.190Z,8.46
2022-09-14T08:00:01.297Z,9.34
2022-09-14T08:03:09.508Z,8.73
2022-09-14T08:06:18.807Z,8.21
2022-09-14T08:09:30.703Z,7.46
2022-09-14T08:12:36.197Z,7.34
2022-09-14T08:15:46.323Z,7.36
2022-09-14T08:18:58.414Z,6.93
2022-09-14T08:22:04.451Z,7.60
2022-09-14T08:25:11.850Z,7.63
2022-09-14T08:28:17.439Z,7.53
2022-09-14T08:31:25.817Z,7.04
2022-09-14T08:34:34.494Z,7.19
2022-09-14T08:37:40.020Z,7.11
2022-09-14T08:40:51.733Z,7.40
2022-09-14T08:43:58.295Z,7.14
2022-09-14T08:47:09.180Z,6.81
2022-09-14T08:50:22.309Z,7.05
2022-09-14T08:53:29.872Z,6.68
2022-09-14T08:56:43.609Z,6.87
2022-09-14T09:00:05.629Z,6.73
2022-09-14T09:03:51.488Z,6.75
2022-09-14T09:07:14.257Z,6.60
2022-09-14T09:10:22.005Z,7.11
2022-09-14T09:13:36.655Z,6.81
2022-09-14T09:16:43.004Z,6.80
2022-09-14T09:20:06.092Z,6.83
2022-09-14T09:23:23.451Z,7.06
2022-09-14T09:26:34.823Z,7.06
2022-09-14T09:29:40.421Z,7.31
2022-09-14T09:32:49.115Z,8.81
2022-09-14T09:36:18.576Z,8.97
2022-09-14T09:39:27.495Z,8.61
2022-09-14T09:42:33.747Z,9.32
2022-09-14T09:46:00.592Z,10.60
2022-09-14T09:49:20.654Z,10.71
2022-09-14T09:52:27.245Z,9.82
2022-09-14T09:55:42.721Z,8.87
2022-09-14T09:58:52.009Z,8.78
2022-09-14T10:02:30.964Z,9.09
2022-09-14T10:05:36.731Z,8.77
2022-09-14T10:08:50.127Z,8.32
2022-09-14T10:12:12.728Z,9.16
2022-09-14T10:15:26.005Z,9.22
2022-09-14T10:18:36.365Z,8.64
2022-09-14T10:22:08.611Z,8.80
2022-09-14T10:25:29.013Z,8.51
2022-09-14T10:28:37.738Z,8.51
2022-09-14T10:31:47.756Z,8.35
2022-09-14T10:34:54.246Z,8.62
2022-09-14T10:38:25.500Z,8.23
2022-09-14T10:41:45.719Z,7.57
2022-09-14T10:45:20.208Z,7.49
2022-09-14T10:49:06.084Z,7.98
2022-09-14T10:52:30.078Z,7.43
2022-09-14T10:55:50.067Z,7.81
2022-09-14T10:59:28.123Z,7.65
2022-09-14T11:03:27.805Z,7.88
2022-09-14T11:06:56.195Z,8.20
2022-09-14T11:10:23.250Z,8.11
2022-09-14T11:13:54.250Z,8.42
2022-09-14T11:17:30.658Z,8.51
2022-09-14T11:20:53.901Z,8.14
2022-09-14T11:24:15.151Z,8.35
2022-09-14T11:27:35.592Z,8.51
2022-09-14T11:30:50.942Z,9.26
2022-09-14T11:34:16.457Z,10.29
2022-09-14T11:37:33.836Z,10.88
2022-09-14T11:41:00.178Z,13.37
2022-09-14T11:44:18.825Z,14.33
2022-09-14T11:47:29.265Z,14.22
2022-09-14T11:50:40.997Z,11.02
2022-09-14T11:53:52.746Z,10.22
2022-09-14T11:57:06.717Z,10.00
2022-09-14T12:01:03.691Z,10.20
2022-09-14T12:04:20.011Z,10.25
2022-09-14T12:08:05.333Z,10.69
2022-09-14T12:11:34.258Z,10.20
2022-09-14T12:14:44.836Z,10.32
2022-09-14T12:17:51.885Z,10.64
2022-09-14T12:21:10.764Z,9.30
2022-09-14T12:24:25.909Z,8.50
2022-09-14T12:27:39.428Z,8.66
2022-09-14T12:31:16.804Z,9.11
2022-09-14T12:34:35.286Z,9.22
2022-09-14T12:37:41.230Z,8.76
2022-09-14T12:40:53.184Z,8.52
2022-09-14T12:44:02.444Z,8.62
2022-09-14T12:47:53.896Z,8.12
2022-09-14T12:51:00.239Z,9.19
2022-09-14T12:54:32.346Z,9.55
2022-09-14T12:57:52.739Z,9.62
2022-09-14T13:01:29.548Z,8.97
2022-09-14T13:04:42.451Z,7.48
2022-09-14T13:07:49.941Z,7.14
2022-09-14T13:10:56.543Z,7.27
2022-09-14T13:14:05.265Z,7.86
2022-09-14T13:17:20.370Z,7.64
2022-09-14T13:20:29.419Z,8.26
2022-09-14T13:23:42.283Z,8.24
2022-09-14T13:26:48.117Z,8.89
2022-09-14T13:30:05.587Z,9.00
2022-09-14T13:33:20.395Z,8.26
2022-09-14T13:36:34.195Z,8.26
2022-09-14T13:39:46.068Z,7.92
2022-09-14T13:42:52.312Z,8.03
2022-09-14T13:45:59.809Z,8.80
2022-09-14T13:49:12.418Z,8.82
2022-09-14T13:53:03.619Z,8.16
2022-09-14T13:56:27.153Z,7.68
2022-09-14T13:59:33.587Z,8.59
2022-09-14T14:02:44.077Z,9.60
2022-09-14T14:05:51.946Z,8.10
2022-09-14T14:09:05.283Z,8.05
2022-09-14T14:12:23.501Z,7.25
2022-09-14T14:15:42.442Z,6.53
2022-09-14T14:18:56.580Z,6.38
2022-09-14T14:22:23.333Z,6.48
2022-09-14T14:25:42.135Z,6.61
2022-09-14T14:28:51.456Z,6.55
2022-09-14T14:31:59.550Z,6.57
2022-09-14T14:35:17.634Z,6.39
2022-09-14T14:38:30.745Z,6.28
2022-09-14T14:41:40.516Z,6.34
2022-09-14T14:44:48.397Z,5.96
2022-09-14T14:48:00.638Z,6.18
2022-09-14T14:51:12.208Z,6.49
2022-09-14T14:54:19.011Z,6.76
2022-09-14T14:57:27.296Z,7.05
2022-09-14T15:00:38.641Z,6.90
2022-09-14T15:03:44.649Z,7.88
2022-09-14T15:06:51.574Z,8.27
2022-09-14T15:09:59.956Z,9.56
2022-09-14T15:13:11.897Z,11.24
2022-09-14T15:16:19.126Z,12.54
2022-09-14T15:19:24.685Z,15.16
2022-09-14T15:22:30.280Z,14.12
2022-09-14T15:25:36.274Z,13.86
2022-09-14T15:28:44.363Z,12.57
2022-09-14T15:31:50.731Z,12.75
2022-09-14T15:34:56.514Z,14.33
2022-09-14T15:38:02.392Z,13.77
2022-09-14T15:41:08.784Z,12.82
2022-09-14T15:44:17.180Z,16.09
2022-09-14T15:47:22.803Z,15.48
2022-09-14T15:50:28.413Z,17.52
2022-09-14T15:53:34.000Z,14.18
2022-09-14T15:56:40.011Z,13.98
2022-09-14T15:59:53.327Z,12.26
2022-09-14T16:02:58.892Z,10.40
2022-09-14T16:06:06.307Z,11.19
2022-09-14T16:09:14.540Z,10.54
2022-09-14T16:12:28.551Z,10.80
2022-09-14T16:15:36.968Z,9.43
2022-09-14T16:18:43.275Z,7.91
2022-09-14T16:21:53.487Z,7.69
2022-09-14T16:24:59.306Z,7.12
2022-09-14T16:28:08.218Z,7.34
2022-09-14T16:31:20.366Z,5.99
2022-09-14T16:34:29.848Z,6.24
2022-09-14T16:37:35.545Z,6.73
2022-09-14T16:40:43.594Z,7.12
2022-09-14T16:43:49.329Z,7.56
2022-09-14T16:47:00.889Z,8.84
2022-09-14T16:50:07.067Z,9.00
2022-09-14T16:53:18.256Z,9.95
2022-09-14T16:56:31.684Z,10.57
2022-09-14T16:59:37.250Z,9.38
2022-09-14T17:02:45.863Z,6.85
2022-09-14T17:05:51.588Z,7.62
2022-09-14T17:09:06.382Z,7.55
2022-09-14T17:12:13.909Z,10.31
2022-09-14T17:15:19.747Z,13.22
2022-09-14T17:18:27.907Z,11.22
2022-09-14T17:21:36.872Z,10.21
2022-09-14T17:24:42.937Z,9.14
2022-09-14T17:27:50.026Z,8.51
2022-09-14T17:30:57.460Z,8.84
2022-09-14T17:34:08.552Z,9.52
2022-09-14T17:37:14.714Z,11.85
2022-09-14T17:40:20.829Z,10.83
2022-09-14T17:43:26.481Z,10.64
2022-09-14T17:46:34.364Z,12.08
2022-09-14T17:49:42.854Z,11.87
2022-09-14T17:52:56.043Z,11.56
2022-09-14T17:56:05.860Z,10.68
2022-09-14T17:59:16.003Z,10.47
2022-09-14T18:02:22.277Z,9.81
2022-09-14T18:05:35.872Z,9.92
2022-09-14T18:08:50.004Z,9.84
2022-09-14T18:12:00.728Z,10.51
2022-09-14T18:15:15.378Z,10.78
2022-09-14T18:18:21.180Z,10.43
2022-09-14T18:21:30.918Z,10.52
2022-09-14T18:24:42.651Z,10.33
2022-09-14T18:27:48.638Z,10.16
2022-09-14T18:31:05.487Z,9.78
2022-09-14T18:34:24.068Z,9.95
2022-09-14T18:37:32.848Z,9.53
2022-09-14T18:40:45.234Z,10.10
2022-09-14T18:43:55.709Z,10.65
2022-09-14T18:47:02.532Z,12.54
2022-09-14T18:50:11.582Z,12.92
2022-09-14T18:53:20.156Z,12.87
2022-09-14T18:56:26.097Z,12.72
2022-09-14T18:59:31.953Z,12.99
2022-09-14T19:02:39.636Z,13.47
2022-09-14T19:05:49.804Z,13.50
2022-09-14T19:08:58.763Z,13.69
2022-09-14T19:12:05.498Z,13.84
2022-09-14T19:15:15.385Z,13.13
2022-09-14T19:18:21.463Z,14.01
2022-09-14T19:21:31.365Z,13.05
2022-09-14T19:24:40.122Z,13.52
2022-09-14T19:27:45.898Z,13.84
2022-09-14T19:30:51.758Z,13.63
2022-09-14T19:33:59.247Z,14.59
2022-09-14T19:37:05.252Z,17.50
2022-09-14T19:40:16.878Z,18.79
2022-09-14T19:43:23.254Z,15.41
2022-09-14T19:46:32.411Z,15.96
2022-09-14T19:49:38.346Z,16.52
2022-09-14T19:52:43.994Z,16.72
2022-09-14T19:55:52.373Z,17.15
2022-09-14T19:59:06.331Z,17.88
2022-09-14T20:02:14.522Z,23.21
2022-09-14T20:05:20.572Z,20.00
2022-09-14T20:08:29.441Z,17.94
2022-09-14T20:11:41.140Z,17.56
2022-09-14T20:14:46.997Z,18.86
2022-09-14T20:17:57.826Z,21.48
2022-09-14T20:21:06.546Z,21.04
2022-09-14T20:24:18.214Z,19.92
2022-09-14T20:27:29.170Z,17.60
2022-09-14T20:30:39.444Z,18.07
2022-09-14T20:33:45.490Z,17.84
2022-09-14T20:36:53.182Z,16.00
2022-09-14T20:39:58.700Z,13.73
2022-09-14T20:43:07.333Z,12.56
2022-09-14T20:46:17.931Z,12.47
2022-09-14T20:49:27.136Z,13.48
2022-09-14T20:52:32.948Z,18.80
2022-09-14T20:55:38.577Z,20.08
2022-09-14T20:58:56.193Z,16.76
2022-09-14T21:02:05.298Z,15.85
2022-09-14T21:05:17.190Z,15.08
2022-09-14T21:08:23.783Z,15.15
2022-09-14T21:11:31.320Z,14.93
2022-09-14T21:14:39.564Z,14.70
2022-09-14T21:17:45.110Z,14.92
2022-09-14T21:20:50.683Z,16.03
2022-09-14T21:23:58.661Z,16.57
2022-09-14T21:27:05.002Z,18.37
2022-09-14T21:30:15.441Z,17.45
2022-09-14T21:33:23.054Z,18.11
2022-09-14T21:36:43.181Z,17.64
2022-09-14T21:39:48.723Z,16.85
2022-09-14T21:42:55.384Z,16.98
2022-09-14T21:46:14.862Z,16.12
2022-09-14T21:49:23.713Z,14.93
2022-09-14T21:52:29.397Z,14.70
2022-09-14T21:55:35.066Z,14.36
2022-09-14T21:58:40.599Z,13.77
2022-09-14T22:01:49.819Z,13.30
2022-09-14T22:04:55.490Z,13.87
2022-09-14T22:08:01.061Z,13.66
2022-09-14T22:11:09.108Z,13.42
2022-09-14T22:14:23.818Z,13.08
2022-09-14T22:17:32.066Z,12.85
2022-09-14T22:20:37.693Z,12.90
2022-09-14T22:23:43.824Z,12.95
2022-09-14T22:26:50.652Z,13.28
2022-09-14T22:29:58.165Z,13.23
2022-09-14T22:33:06.443Z,14.43
2022-09-14T22:36:15.083Z,16.16
2022-09-14T22:39:21.780Z,15.87
2022-09-14T22:42:28.312Z,16.12
2022-09-14T22:45:33.782Z,15.94
2022-09-14T22:48:43.240Z,16.23
2022-09-14T22:51:48.906Z,16.41
2022-09-14T22:54:54.526Z,16.06
2022-09-14T22:58:00.137Z,16.62
2022-09-14T23:01:11.544Z,16.90
2022-09-14T23:04:19.882Z,17.19
2022-09-14T23:07:25.597Z,17.71
2022-09-14T23:10:31.425Z,20.01
2022-09-14T23:13:40.763Z,19.55
2022-09-14T23:16:52.205Z,19.82
2022-09-14T23:20:00.585Z,19.14
2022-09-14T23:23:06.797Z,19.71
2022-09-14T23:26:15.376Z,19.96
2022-09-14T23:29:20.823Z,20.70
2022-09-14T23:32:26.498Z,22.95
2022-09-14T23:35:37.556Z,24.48
2022-09-14T23:38:43.491Z,23.11
2022-09-14T23:41:49.215Z,21.29
2022-09-14T23:44:54.737Z,20.73
2022-09-14T23:48:00.286Z,21.49
2022-09-14T23:51:12.496Z,21.71
2022-09-14T23:54:18.214Z,22.25
2022-09-14T23:57:23.733Z,22.76
